Time;durP1;ratioP1;P1;durP2;ratioP2;P2;SDS_P1;SDS_P2;PMS_P1;PMS_P2;Temp;Humidity;BMP_temperature;BMP_pressure;BME280_temperature;BME280_humidity;BME280_pressure;Samples;Min_cycle;Max_cycle;Signal;HPM_P1;HPM_P2
2021/09/09 00:01:32;;;;;;;8.63;6.20;;;16.20;99.90;;;;;;5102021;27;20089;-66
2021/09/09 00:03:59;;;;;;;7.28;6.57;;;16.20;99.90;;;;;;5115832;27;20118;-66
2021/09/09 00:06:25;;;;;;;7.75;6.57;;;16.20;99.90;;;;;;5104002;27;20416;-66
2021/09/09 00:08:50;;;;;;;7.45;6.57;;;16.20;99.90;;;;;;5121771;27;20047;-67
2021/09/09 00:11:16;;;;;;;8.93;6.35;;;16.20;99.90;;;;;;5097697;27;20032;-67
2021/09/09 00:13:42;;;;;;;13.27;6.85;;;16.10;99.90;;;;;;5097824;27;20194;-67
2021/09/09 00:16:08;;;;;;;10.05;6.68;;;16.10;99.90;;;;;;5116417;27;20071;-67
2021/09/09 00:18:34;;;;;;;11.25;6.50;;;16.10;99.90;;;;;;5099321;27;20086;-66
2021/09/09 00:21:00;;;;;;;8.48;7.13;;;16.10;99.90;;;;;;5112922;27;20062;-66
2021/09/09 00:23:26;;;;;;;8.02;6.32;;;16.00;99.90;;;;;;5102571;27;20038;-66
2021/09/09 00:25:52;;;;;;;7.80;6.60;;;16.00;99.90;;;;;;5101475;27;20039;-66
2021/09/09 00:28:17;;;;;;;9.15;7.25;;;16.00;99.90;;;;;;5117490;27;20186;-66
2021/09/09 00:30:43;;;;;;;7.38;5.97;;;15.90;99.90;;;;;;5118646;27;20043;-66
2021/09/09 00:33:09;;;;;;;10.90;7.05;;;15.90;99.90;;;;;;5112790;27;20035;-66
2021/09/09 00:35:36;;;;;;;9.75;7.05;;;15.90;99.90;;;;;;5096311;27;20055;-66
2021/09/09 00:38:02;;;;;;;10.68;6.90;;;15.80;99.90;;;;;;5115461;27;20058;-66
2021/09/09 00:40:29;;;;;;;9.90;7.38;;;15.70;99.90;;;;;;5101750;27;20481;-66
2021/09/09 00:42:55;;;;;;;9.32;7.20;;;15.80;99.90;;;;;;5114515;27;20381;-66
2021/09/09 00:45:20;;;;;;;9.13;7.60;;;15.70;99.90;;;;;;5118828;27;20055;-66
2021/09/09 00:47:46;;;;;;;9.57;6.80;;;15.70;99.90;;;;;;5114279;27;20036;-66
2021/09/09 00:50:12;;;;;;;11.73;7.72;;;15.60;99.90;;;;;;5117878;27;20070;-66
2021/09/09 00:52:43;;;;;;;9.85;7.65;;;15.60;99.90;;;;;;5102903;27;20046;-66
2021/09/09 00:55:10;;;;;;;9.68;7.07;;;15.60;99.90;;;;;;5099636;27;20051;-66
2021/09/09 00:57:36;;;;;;;7.97;7.00;;;15.60;99.90;;;;;;5116301;27;20439;-66
2021/09/09 01:00:03;;;;;;;10.70;7.68;;;15.50;99.90;;;;;;5098339;27;20054;-66
2021/09/09 01:02:28;;;;;;;9.82;7.32;;;15.50;99.90;;;;;;5115595;27;20087;-66
2021/09/09 01:04:54;;;;;;;10.15;6.93;;;15.40;99.90;;;;;;5114632;27;20488;-66
2021/09/09 01:07:19;;;;;;;9.50;7.97;;;15.40;99.90;;;;;;5115027;27;20434;-66
2021/09/09 01:09:45;;;;;;;9.10;8.02;;;15.40;99.90;;;;;;5102331;27;20612;-66
2021/09/09 01:12:11;;;;;;;11.05;7.70;;;15.40;99.90;;;;;;5100705;27;20156;-66
2021/09/09 01:14:36;;;;;;;13.85;7.70;;;15.40;99.90;;;;;;5116056;27;20109;-66
2021/09/09 01:17:02;;;;;;;11.95;8.50;;;15.40;99.90;;;;;;5102882;27;20780;-66
2021/09/09 01:19:28;;;;;;;11.75;6.90;;;15.40;99.90;;;;;;5096355;27;20040;-66
2021/09/09 01:21:53;;;;;;;10.50;8.05;;;15.30;99.90;;;;;;5115801;27;20431;-66
2021/09/09 01:24:21;;;;;;;9.57;7.32;;;15.30;99.90;;;;;;5096452;27;20043;-66
2021/09/09 01:26:55;;;;;;;8.15;7.35;;;15.20;99.90;;;;;;5101955;27;20027;-67
2021/09/09 01:29:24;;;;;;;8.93;8.03;;;15.20;99.90;;;;;;5108379;27;20096;-66
2021/09/09 01:31:51;;;;;;;11.00;8.30;;;15.20;99.90;;;;;;5089261;28;20043;-67
2021/09/09 01:34:17;;;;;;;10.85;8.07;;;15.10;99.90;;;;;;5111471;27;20126;-66
2021/09/09 01:36:44;;;;;;;11.55;8.82;;;15.10;99.90;;;;;;5105667;27;20496;-67
2021/09/09 01:39:10;;;;;;;14.10;8.32;;;15.00;99.90;;;;;;5114021;27;20032;-67
2021/09/09 01:41:36;;;;;;;9.98;7.65;;;15.00;99.90;;;;;;5116043;27;20036;-66
2021/09/09 01:44:03;;;;;;;11.05;8.35;;;15.00;99.90;;;;;;5098724;27;20119;-66
2021/09/09 01:46:29;;;;;;;9.20;7.68;;;15.00;99.90;;;;;;5112788;27;20055;-66
2021/09/09 01:48:55;;;;;;;10.25;8.00;;;15.00;99.90;;;;;;5113917;27;20392;-66
2021/09/09 01:51:21;;;;;;;13.02;8.82;;;15.00;99.90;;;;;;5096252;27;20035;-66
2021/09/09 01:53:47;;;;;;;11.52;7.65;;;15.00;99.90;;;;;;5100531;28;20051;-67
2021/09/09 01:56:12;;;;;;;10.00;9.00;;;15.00;99.90;;;;;;5115578;27;20069;-66
2021/09/09 01:58:38;;;;;;;9.57;8.68;;;15.00;99.90;;;;;;5115912;27;20042;-67
2021/09/09 02:01:04;;;;;;;9.63;7.85;;;15.00;99.90;;;;;;5110042;27;20050;-67
2021/09/09 02:03:29;;;;;;;10.32;8.48;;;15.00;99.90;;;;;;5097233;28;20043;-67
2021/09/09 02:05:55;;;;;;;10.15;9.13;;;14.90;99.90;;;;;;5115368;28;20031;-67
2021/09/09 02:08:20;;;;;;;10.85;9.57;;;14.90;99.90;;;;;;5101282;28;20130;-67
2021/09/09 02:10:46;;;;;;;10.88;8.88;;;14.90;99.90;;;;;;5099272;28;20058;-67
2021/09/09 02:13:11;;;;;;;10.10;8.98;;;14.90;99.90;;;;;;5112155;27;20040;-67
2021/09/09 02:15:37;;;;;;;9.93;8.93;;;14.90;99.90;;;;;;5116056;28;20091;-67
2021/09/09 02:18:03;;;;;;;14.25;10.63;;;14.80;99.90;;;;;;5097034;28;20481;-67
2021/09/09 02:20:29;;;;;;;13.27;9.30;;;14.80;99.90;;;;;;5113569;28;20105;-67
2021/09/09 02:22:55;;;;;;;12.48;9.73;;;14.80;99.90;;;;;;5098394;28;20043;-67
2021/09/09 02:25:21;;;;;;;10.57;8.73;;;14.80;99.90;;;;;;5101917;28;20366;-67
2021/09/09 02:27:46;;;;;;;9.73;8.73;;;14.80;99.90;;;;;;5117336;28;20039;-67
2021/09/09 02:30:12;;;;;;;11.73;9.48;;;14.80;99.90;;;;;;5122278;28;20066;-66
2021/09/09 02:32:38;;;;;;;11.00;9.80;;;14.70;99.90;;;;;;5118561;27;20031;-67
2021/09/09 02:35:04;;;;;;;10.50;8.20;;;14.70;99.90;;;;;;5120024;28;20122;-67
2021/09/09 02:37:29;;;;;;;11.70;9.45;;;14.70;99.90;;;;;;5103420;28;20484;-67
2021/09/09 02:39:55;;;;;;;11.65;8.82;;;14.60;99.90;;;;;;5107393;28;20047;-67
2021/09/09 02:42:21;;;;;;;9.93;8.93;;;14.50;99.90;;;;;;5123999;28;20100;-67
2021/09/09 02:44:46;;;;;;;10.90;8.90;;;14.50;99.90;;;;;;5122552;28;20036;-67
2021/09/09 02:47:12;;;;;;;12.25;9.30;;;14.50;99.90;;;;;;5120739;28;20049;-66
2021/09/09 02:49:38;;;;;;;11.05;9.05;;;14.50;99.90;;;;;;5122417;28;20032;-67
2021/09/09 02:52:04;;;;;;;11.40;8.93;;;14.40;99.90;;;;;;5103885;28;20039;-67
2021/09/09 02:54:29;;;;;;;9.65;8.65;;;14.30;99.90;;;;;;5102960;28;20046;-67
2021/09/09 02:56:55;;;;;;;9.02;8.02;;;14.30;99.90;;;;;;5107100;27;20037;-67
2021/09/09 02:59:21;;;;;;;8.88;8.07;;;14.20;99.90;;;;;;5128007;27;20188;-67
2021/09/09 03:01:46;;;;;;;10.18;8.02;;;14.20;99.90;;;;;;5119527;27;20046;-67
2021/09/09 03:04:12;;;;;;;9.00;8.23;;;14.10;99.90;;;;;;5126130;27;20035;-66
2021/09/09 03:06:38;;;;;;;9.23;8.20;;;14.10;99.90;;;;;;5095102;27;20039;-66
2021/09/09 03:09:03;;;;;;;10.82;8.23;;;14.00;99.90;;;;;;5124840;27;20040;-66
2021/09/09 03:11:29;;;;;;;10.15;8.40;;;14.00;99.90;;;;;;5105119;27;20035;-66
2021/09/09 03:13:54;;;;;;;10.05;7.20;;;13.90;99.90;;;;;;5129648;27;20493;-67
2021/09/09 03:16:20;;;;;;;9.38;8.35;;;13.90;99.90;;;;;;5121631;27;20046;-67
2021/09/09 03:18:46;;;;;;;8.93;8.13;;;13.80;99.90;;;;;;5127811;27;20058;-67
2021/09/09 03:21:11;;;;;;;11.45;8.93;;;13.80;99.90;;;;;;5125328;27;20606;-66
2021/09/09 03:23:38;;;;;;;9.77;8.13;;;13.70;99.90;;;;;;5119997;27;20039;-66
2021/09/09 03:26:07;;;;;;;12.65;10.10;;;13.70;99.90;;;;;;5126187;27;20047;-66
2021/09/09 03:28:32;;;;;;;11.02;9.88;;;13.70;99.90;;;;;;5126832;27;20035;-66
2021/09/09 03:30:58;;;;;;;16.88;11.30;;;13.60;99.90;;;;;;5105320;27;20038;-66
2021/09/09 03:33:23;;;;;;;13.60;12.20;;;13.70;99.90;;;;;;5114741;27;20385;-66
2021/09/09 03:35:49;;;;;;;15.30;13.80;;;13.70;99.90;;;;;;5107238;27;20686;-66
2021/09/09 03:38:14;;;;;;;14.40;13.00;;;13.70;99.90;;;;;;5112602;27;20080;-66
2021/09/09 03:40:40;;;;;;;14.38;12.35;;;13.80;99.90;;;;;;5117513;27;20075;-66
2021/09/09 03:43:06;;;;;;;16.80;13.10;;;13.90;99.90;;;;;;5121494;27;20092;-66
2021/09/09 03:45:32;;;;;;;17.27;12.75;;;13.90;99.90;;;;;;5122406;27;20034;-66
2021/09/09 03:47:57;;;;;;;17.90;12.38;;;13.90;99.90;;;;;;5126375;27;20468;-66
2021/09/09 03:50:23;;;;;;;12.63;11.35;;;13.90;99.90;;;;;;5111083;27;20035;-66
2021/09/09 03:52:49;;;;;;;16.15;12.75;;;13.90;99.90;;;;;;5120510;27;20073;-66
2021/09/09 03:55:14;;;;;;;12.85;11.48;;;13.90;99.90;;;;;;5117699;27;20038;-66
2021/09/09 03:57:40;;;;;;;12.18;10.55;;;13.90;99.90;;;;;;5121130;27;20032;-66
2021/09/09 04:00:07;;;;;;;13.18;10.88;;;13.90;99.90;;;;;;5125289;27;20041;-66
2021/09/09 04:02:32;;;;;;;15.38;12.07;;;13.90;99.90;;;;;;5119852;27;20074;-66
2021/09/09 04:04:58;;;;;;;13.05;11.77;;;13.80;99.90;;;;;;5107357;27;20066;-66
2021/09/09 04:07:24;;;;;;;13.30;11.90;;;13.80;99.90;;;;;;5122269;27;20040;-66
2021/09/09 04:09:49;;;;;;;13.23;11.93;;;13.70;99.90;;;;;;5113207;27;20039;-66
2021/09/09 04:12:15;;;;;;;18.45;12.68;;;13.80;99.90;;;;;;5123820;27;20139;-66
2021/09/09 04:14:41;;;;;;;13.77;12.43;;;13.70;99.90;;;;;;5114927;27;20061;-66
2021/09/09 04:17:06;;;;;;;16.83;12.38;;;13.70;99.90;;;;;;5107857;27;20038;-66
2021/09/09 04:19:32;;;;;;;13.35;11.38;;;13.70;99.90;;;;;;5113574;27;20070;-66
2021/09/09 04:22:00;;;;;;;15.73;11.68;;;13.80;99.90;;;;;;5126544;27;20042;-67
2021/09/09 04:24:26;;;;;;;15.50;13.35;;;13.80;99.90;;;;;;5112136;27;20161;-67
2021/09/09 04:26:52;;;;;;;13.10;11.70;;;13.80;99.90;;;;;;5111481;27;20038;-66
2021/09/09 04:29:18;;;;;;;13.50;12.07;;;13.80;99.90;;;;;;5089802;28;20040;-66
2021/09/09 04:31:43;;;;;;;13.40;12.00;;;13.80;99.90;;;;;;5104104;27;20039;-66
2021/09/09 04:34:09;;;;;;;18.02;13.82;;;13.70;99.90;;;;;;5122087;27;20139;-66
2021/09/09 04:36:35;;;;;;;14.80;12.18;;;13.70;99.90;;;;;;5122072;27;20034;-66
2021/09/09 04:39:01;;;;;;;10.63;9.52;;;13.70;99.90;;;;;;5121996;27;20035;-66
2021/09/09 04:41:26;;;;;;;13.25;9.65;;;13.70;99.90;;;;;;5102912;27;20043;-66
2021/09/09 04:43:52;;;;;;;11.30;10.07;;;13.70;99.90;;;;;;5119486;27;20042;-66
2021/09/09 04:46:18;;;;;;;13.98;11.60;;;13.70;99.90;;;;;;5103707;27;20054;-66
2021/09/09 04:48:43;;;;;;;13.57;11.65;;;13.70;99.90;;;;;;5120886;27;20035;-66
2021/09/09 04:51:09;;;;;;;11.48;10.25;;;13.70;99.90;;;;;;5115563;27;20039;-66
2021/09/09 04:53:35;;;;;;;13.68;11.23;;;13.70;99.90;;;;;;5119445;27;20130;-66
2021/09/09 04:56:00;;;;;;;13.85;11.05;;;13.60;99.90;;;;;;5121022;27;20036;-67
2021/09/09 04:58:27;;;;;;;10.00;8.88;;;13.50;99.90;;;;;;5113238;27;20051;-67
2021/09/09 05:00:53;;;;;;;11.32;9.73;;;13.60;99.90;;;;;;5118653;27;20481;-66
2021/09/09 05:03:18;;;;;;;13.43;10.55;;;13.50;99.90;;;;;;5120581;27;20046;-67
2021/09/09 05:05:44;;;;;;;10.82;9.65;;;13.50;99.90;;;;;;5116254;27;20050;-66
2021/09/09 05:08:10;;;;;;;12.77;11.15;;;13.50;99.90;;;;;;5107405;27;20050;-66
2021/09/09 05:10:35;;;;;;;16.00;11.18;;;13.40;99.90;;;;;;5125184;27;20042;-66
2021/09/09 05:13:01;;;;;;;22.08;14.50;;;13.40;99.90;;;;;;5121344;27;20038;-67
2021/09/09 05:15:27;;;;;;;14.65;13.15;;;13.30;99.90;;;;;;5116304;27;20039;-67
2021/09/09 05:17:53;;;;;;;15.73;13.05;;;13.40;99.90;;;;;;5099660;27;20882;-66
2021/09/09 05:20:20;;;;;;;14.88;13.38;;;13.40;99.90;;;;;;5115287;27;20041;-66
2021/09/09 05:22:46;;;;;;;14.25;11.10;;;13.50;99.90;;;;;;5100728;27;20047;-66
2021/09/09 05:25:12;;;;;;;16.77;14.60;;;13.60;99.90;;;;;;5111181;27;20451;-66
2021/09/09 05:27:37;;;;;;;17.65;13.52;;;13.70;99.90;;;;;;5114046;27;20023;-67
2021/09/09 05:30:03;;;;;;;14.77;13.27;;;13.70;99.90;;;;;;5116216;27;20038;-66
2021/09/09 05:35:10;;;;;;;14.63;13.07;;;13.90;99.90;;;;;;4998470;26;20053;-68
2021/09/09 05:37:36;;;;;;;16.45;14.07;;;14.00;99.90;;;;;;5000373;28;20046;-68
2021/09/09 05:40:03;;;;;;;17.60;13.93;;;14.20;99.90;;;;;;4984164;28;20120;-67
2021/09/09 05:42:28;;;;;;;14.98;13.38;;;14.40;99.90;;;;;;4999023;28;20045;-67
2021/09/09 05:44:54;;;;;;;12.32;11.02;;;14.80;99.90;;;;;;5000774;28;20034;-67
2021/09/09 05:47:20;;;;;;;14.80;10.48;;;15.30;99.90;;;;;;4999424;28;20635;-67
2021/09/09 05:49:46;;;;;;;11.93;10.77;;;15.60;99.90;;;;;;4998503;28;20114;-66
2021/09/09 05:52:12;;;;;;;13.38;12.00;;;15.90;99.90;;;;;;4999041;28;20042;-66
2021/09/09 05:54:37;;;;;;;12.75;11.55;;;16.20;99.90;;;;;;4998754;28;20050;-66
2021/09/09 05:57:03;;;;;;;14.65;12.43;;;16.30;99.90;;;;;;4999332;28;20074;-66
2021/09/09 05:59:29;;;;;;;13.27;10.95;;;16.60;99.90;;;;;;4998225;28;20038;-66
2021/09/09 06:01:55;;;;;;;13.50;11.23;;;17.30;99.90;;;;;;4996297;28;20038;-66
2021/09/09 06:04:22;;;;;;;12.85;10.90;;;18.30;99.90;;;;;;4999746;28;20504;-66
2021/09/09 06:06:48;;;;;;;13.18;10.82;;;19.30;99.90;;;;;;5000620;28;20044;-66
2021/09/09 06:09:14;;;;;;;13.77;10.85;;;20.20;99.90;;;;;;4998463;28;20037;-65
2021/09/09 06:11:40;;;;;;;14.52;11.13;;;21.00;99.90;;;;;;4998602;28;20527;-65
2021/09/09 06:14:06;;;;;;;18.40;12.18;;;21.70;99.90;;;;;;4997977;28;20041;-65
2021/09/09 06:16:33;;;;;;;13.65;10.70;;;22.20;99.90;;;;;;4995998;28;20045;-65
2021/09/09 06:18:59;;;;;;;13.18;11.25;;;22.60;99.90;;;;;;4997711;28;20042;-65
2021/09/09 06:21:25;;;;;;;14.98;11.32;;;22.90;99.90;;;;;;4997695;28;20088;-65
2021/09/09 06:23:51;;;;;;;14.75;9.98;;;23.10;99.90;;;;;;4998700;28;20050;-66
2021/09/09 06:26:18;;;;;;;15.85;11.57;;;23.60;99.90;;;;;;4998123;28;20037;-65
2021/09/09 06:28:44;;;;;;;14.43;12.15;;;23.80;99.90;;;;;;4995896;28;20117;-65
2021/09/09 06:31:09;;;;;;;13.43;11.13;;;24.20;99.90;;;;;;4999444;28;20037;-65
2021/09/09 06:33:35;;;;;;;14.82;11.55;;;24.20;99.80;;;;;;5002244;28;20050;-65
2021/09/09 06:36:01;;;;;;;12.55;11.00;;;24.70;99.40;;;;;;5001364;28;20049;-65
2021/09/09 06:38:27;;;;;;;17.70;11.40;;;24.60;98.10;;;;;;5002450;28;20042;-65
2021/09/09 06:40:53;;;;;;;19.25;11.65;;;23.70;99.10;;;;;;5003126;28;20038;-65
2021/09/09 06:43:18;;;;;;;12.82;11.63;;;23.20;99.90;;;;;;5000397;28;20552;-66
2021/09/09 06:45:44;;;;;;;14.05;12.15;;;23.30;99.90;;;;;;5004284;28;20042;-66
2021/09/09 06:48:10;;;;;;;14.98;12.35;;;23.20;99.90;;;;;;5005776;28;20045;-65
2021/09/09 06:50:35;;;;;;;13.85;12.48;;;22.60;99.90;;;;;;5002246;28;20041;-65
2021/09/09 06:53:02;;;;;;;14.77;11.73;;;22.10;99.90;;;;;;5000919;28;20658;-65
2021/09/09 06:55:27;;;;;;;18.45;11.82;;;22.50;99.90;;;;;;5002437;28;20691;-65
2021/09/09 06:57:53;;;;;;;13.68;12.02;;;23.30;99.90;;;;;;5003198;28;20107;-65
2021/09/09 07:00:19;;;;;;;14.55;12.10;;;23.40;99.90;;;;;;4999084;28;20057;-65
2021/09/09 07:02:45;;;;;;;15.18;13.13;;;23.10;99.90;;;;;;5000567;28;20042;-65
2021/09/09 07:05:11;;;;;;;13.32;12.07;;;23.00;99.90;;;;;;5015167;28;20046;-65
2021/09/09 07:07:40;;;;;;;17.50;12.65;;;22.70;99.90;;;;;;4999057;28;20169;-65
2021/09/09 07:10:08;;;;;;;19.45;12.60;;;22.20;99.90;;;;;;5001327;28;20053;-65
2021/09/09 07:12:34;;;;;;;16.88;14.27;;;21.70;99.90;;;;;;5003831;28;20077;-65
2021/09/09 07:14:59;;;;;;;20.02;13.18;;;21.20;99.90;;;;;;5000251;28;20069;-65
2021/09/09 07:17:25;;;;;;;18.17;13.30;;;21.00;99.90;;;;;;5002490;28;20056;-65
2021/09/09 07:19:51;;;;;;;16.23;14.35;;;20.80;99.90;;;;;;5002304;28;20084;-65
2021/09/09 07:22:16;;;;;;;18.13;12.88;;;20.60;99.90;;;;;;5000935;28;20092;-65
2021/09/09 07:24:42;;;;;;;15.43;13.60;;;20.50;99.90;;;;;;5003751;28;20096;-65
2021/09/09 07:27:08;;;;;;;14.77;13.27;;;20.50;99.90;;;;;;4999687;28;20127;-65
2021/09/09 07:29:33;;;;;;;17.27;13.75;;;20.40;99.90;;;;;;5002494;28;20045;-65
2021/09/09 07:31:59;;;;;;;15.75;14.13;;;20.40;99.90;;;;;;5000609;28;20073;-65
2021/09/09 07:34:25;;;;;;;16.30;13.20;;;20.30;99.90;;;;;;5001264;28;20468;-65
2021/09/09 07:36:53;;;;;;;17.88;13.93;;;20.20;99.90;;;;;;4998829;28;20522;-65
2021/09/09 07:39:19;;;;;;;17.60;14.73;;;20.20;99.90;;;;;;5000866;28;20046;-65
2021/09/09 07:41:45;;;;;;;15.57;13.25;;;20.10;99.90;;;;;;5001374;28;20601;-65
2021/09/09 07:44:11;;;;;;;17.55;13.73;;;20.10;99.90;;;;;;4999379;28;20034;-65
2021/09/09 07:46:37;;;;;;;19.02;13.73;;;20.10;99.90;;;;;;4999355;28;20046;-65
2021/09/09 07:49:03;;;;;;;17.45;14.27;;;20.00;99.90;;;;;;5001005;28;20248;-65
2021/09/09 07:51:29;;;;;;;15.68;13.27;;;20.10;99.90;;;;;;5003048;28;20033;-65
2021/09/09 07:53:55;;;;;;;16.45;14.05;;;20.20;99.90;;;;;;4998187;28;20076;-65
2021/09/09 07:56:21;;;;;;;16.95;13.52;;;20.20;99.90;;;;;;5003003;28;20088;-65
2021/09/09 07:58:49;;;;;;;16.35;14.73;;;20.30;99.90;;;;;;5000629;28;20046;-65
2021/09/09 08:01:19;;;;;;;16.17;14.38;;;20.30;99.90;;;;;;5000940;28;20141;-65
2021/09/09 08:03:46;;;;;;;16.13;14.55;;;20.40;99.90;;;;;;5001777;28;20042;-65
2021/09/09 08:06:13;;;;;;;15.38;13.77;;;20.40;99.90;;;;;;4999215;28;20041;-65
2021/09/09 08:08:39;;;;;;;15.07;13.77;;;20.40;99.90;;;;;;4998452;28;20041;-65
2021/09/09 08:11:04;;;;;;;15.23;13.73;;;20.40;99.90;;;;;;4999640;28;20034;-65
2021/09/09 08:13:30;;;;;;;15.63;13.82;;;20.60;99.90;;;;;;5001766;28;20045;-65
2021/09/09 08:15:56;;;;;;;19.90;14.00;;;20.70;99.90;;;;;;4999419;28;20042;-65
2021/09/09 08:18:23;;;;;;;18.35;14.35;;;20.80;99.90;;;;;;5003725;28;20057;-65
2021/09/09 08:20:49;;;;;;;20.55;13.88;;;21.00;99.90;;;;;;5000028;28;20056;-65
2021/09/09 08:23:15;;;;;;;15.05;13.65;;;21.20;99.90;;;;;;5000139;28;20396;-65
2021/09/09 08:25:40;;;;;;;16.20;12.82;;;21.50;99.90;;;;;;4999633;28;20048;-64
2021/09/09 08:28:06;;;;;;;13.63;12.35;;;21.80;99.90;;;;;;4998722;28;20049;-65
2021/09/09 08:30:32;;;;;;;17.75;14.20;;;22.10;99.90;;;;;;4999806;28;20053;-65
2021/09/09 08:32:58;;;;;;;17.35;13.50;;;22.30;99.90;;;;;;5001048;28;20042;-65
2021/09/09 08:35:24;;;;;;;16.38;13.30;;;22.60;99.90;;;;;;4999334;28;20137;-65
2021/09/09 08:37:50;;;;;;;20.40;12.93;;;22.80;99.90;;;;;;5000389;28;20069;-65
2021/09/09 08:40:16;;;;;;;14.38;13.02;;;23.10;99.90;;;;;;4997686;28;20045;-65
2021/09/09 08:42:43;;;;;;;18.23;12.65;;;23.30;99.90;;;;;;5001340;28;20400;-65
2021/09/09 08:45:13;;;;;;;17.67;12.52;;;23.50;99.90;;;;;;4999929;28;20061;-65
2021/09/09 08:47:40;;;;;;;13.80;12.20;;;23.80;99.90;;;;;;5000190;28;20041;-65
2021/09/09 08:50:08;;;;;;;14.23;12.88;;;24.00;99.90;;;;;;5000324;28;20038;-65
2021/09/09 08:52:34;;;;;;;17.45;11.88;;;24.20;99.90;;;;;;4999140;28;20518;-65
2021/09/09 08:55:00;;;;;;;12.55;11.35;;;24.40;99.90;;;;;;5000154;28;20121;-65
2021/09/09 08:57:27;;;;;;;12.90;11.57;;;24.50;99.90;;;;;;4984177;28;20132;-65
2021/09/09 08:59:53;;;;;;;15.85;11.75;;;24.60;99.90;;;;;;5000216;28;20041;-65
2021/09/09 09:02:20;;;;;;;12.50;11.30;;;24.80;99.90;;;;;;5000092;28;20404;-65
2021/09/09 09:05:04;;;;;;;13.30;12.02;;;24.90;99.90;;;;;;5001196;28;20045;-65
2021/09/09 09:07:32;;;;;;;13.50;12.02;;;24.90;99.90;;;;;;5001719;28;20387;-65
2021/09/09 09:09:59;;;;;;;13.32;11.98;;;24.80;99.90;;;;;;5000111;28;20038;-65
2021/09/09 09:12:44;;;;;;;13.35;10.70;;;25.00;99.90;;;;;;5000250;28;20049;-65
2021/09/09 09:15:24;;;;;;;12.83;11.70;;;25.10;99.90;;;;;;5000969;28;20404;-65
2021/09/09 09:17:58;;;;;;;15.90;11.80;;;25.30;99.90;;;;;;5000369;28;20354;-66
2021/09/09 09:20:25;;;;;;;13.48;11.77;;;25.40;99.90;;;;;;4997598;28;20092;-66
2021/09/09 09:22:53;;;;;;;12.63;11.02;;;25.50;99.90;;;;;;5000155;28;20057;-66
2021/09/09 09:25:39;;;;;;;16.00;12.40;;;25.40;99.90;;;;;;4998960;28;20052;-65
2021/09/09 09:28:04;;;;;;;;;;;25.40;99.90;;;;;;5001130;28;20046;-65
2021/09/09 09:30:30;;;;;;;13.82;11.43;;;25.40;99.90;;;;;;5015518;28;19927;-65
2021/09/09 09:32:56;;;;;;;11.68;10.20;;;25.50;99.90;;;;;;4999679;28;20046;-66
2021/09/09 09:35:22;;;;;;;13.43;11.52;;;25.70;99.90;;;;;;4998742;28;20074;-66
2021/09/09 09:37:56;;;;;;;17.70;11.30;;;25.60;99.90;;;;;;4999922;28;20049;-66
2021/09/09 09:40:26;;;;;;;14.32;10.90;;;25.50;99.30;;;;;;4999810;28;20049;-66
2021/09/09 09:42:52;;;;;;;11.98;8.88;;;25.60;99.90;;;;;;4984992;28;20042;-65
2021/09/09 09:45:19;;;;;;;10.52;9.40;;;25.60;99.90;;;;;;5000866;28;20041;-65
2021/09/09 09:47:45;;;;;;;17.17;11.27;;;25.80;99.90;;;;;;5000841;28;20092;-65
2021/09/09 09:50:21;;;;;;;14.43;11.30;;;25.90;99.90;;;;;;4999220;28;20096;-65
2021/09/09 09:52:48;;;;;;;20.08;11.73;;;26.00;99.90;;;;;;4996557;28;20042;-65
2021/09/09 09:55:14;;;;;;;22.02;12.15;;;25.90;98.60;;;;;;4998227;28;20037;-65
2021/09/09 09:57:56;;;;;;;12.98;10.80;;;26.00;99.90;;;;;;4998011;28;20648;-65
2021/09/09 10:00:23;;;;;;;13.35;10.45;;;26.00;99.90;;;;;;4998440;28;20368;-66
2021/09/09 10:02:51;;;;;;;15.88;9.93;;;26.10;99.90;;;;;;4999353;28;20053;-65
2021/09/09 10:05:17;;;;;;;12.98;10.13;;;26.20;99.90;;;;;;4997849;28;20050;-65
2021/09/09 10:07:43;;;;;;;19.52;11.07;;;26.30;99.20;;;;;;4995453;28;20116;-65
2021/09/09 10:10:08;;;;;;;16.83;10.57;;;26.30;96.90;;;;;;4999057;28;20443;-66
2021/09/09 10:12:34;;;;;;;11.45;10.40;;;26.10;96.90;;;;;;4998151;28;20046;-66
2021/09/09 10:15:04;;;;;;;14.55;9.90;;;26.00;97.70;;;;;;4998023;28;20049;-65
2021/09/09 10:17:31;;;;;;;13.00;10.18;;;26.00;98.90;;;;;;4998390;28;20053;-65
2021/09/09 10:20:33;;;;;;;16.05;9.82;;;26.00;98.30;;;;;;4998180;28;20057;-65
2021/09/09 10:23:07;;;;;;;12.27;9.40;;;26.20;96.10;;;;;;4997408;28;20080;-65
2021/09/09 10:25:47;;;;;;;12.18;9.55;;;26.40;98.30;;;;;;4995624;28;20107;-65
2021/09/09 10:28:54;;;;;;;9.77;8.85;;;26.20;94.90;;;;;;4996317;28;20038;-65
2021/09/09 10:31:23;;;;;;;10.85;9.05;;;26.30;97.40;;;;;;4993539;28;20050;-66
2021/09/09 10:33:51;;;;;;;14.70;8.57;;;26.40;96.70;;;;;;4998505;28;20536;-66
2021/09/09 10:36:35;;;;;;;11.25;8.45;;;26.60;96.60;;;;;;4997527;28;20048;-66
2021/09/09 10:39:01;;;;;;;12.67;8.47;;;26.70;91.30;;;;;;5000248;28;20042;-65
2021/09/09 10:41:28;;;;;;;13.70;7.03;;;26.60;91.90;;;;;;4998351;28;20378;-65
2021/09/09 10:44:01;;;;;;;10.18;8.80;;;26.80;94.50;;;;;;4995991;28;20587;-65
2021/09/09 10:46:39;;;;;;;9.10;8.20;;;26.80;91.60;;;;;;4994697;28;20042;-66
2021/09/09 10:49:14;;;;;;;10.82;8.02;;;26.90;91.40;;;;;;4997016;28;20044;-65
2021/09/09 10:52:10;;;;;;;11.85;7.63;;;26.80;90.90;;;;;;4998076;28;20049;-66
2021/09/09 10:55:10;;;;;;;8.85;6.72;;;26.90;91.40;;;;;;4998478;28;20551;-66
2021/09/09 10:57:36;;;;;;;9.95;8.07;;;26.90;94.00;;;;;;4997635;28;20045;-66
2021/09/09 11:00:04;;;;;;;9.35;7.65;;;26.90;93.00;;;;;;4998064;28;20030;-66
2021/09/09 11:02:32;;;;;;;10.80;7.88;;;27.20;92.80;;;;;;4998564;28;20050;-66
2021/09/09 11:05:05;;;;;;;12.40;8.30;;;27.20;92.30;;;;;;5000074;28;20232;-66
2021/09/09 11:07:31;;;;;;;8.63;7.82;;;27.40;90.10;;;;;;4999563;28;20045;-66
2021/09/09 11:10:08;;;;;;;9.05;7.30;;;27.40;88.50;;;;;;4996660;28;20515;-65
2021/09/09 11:12:36;;;;;;;11.85;7.00;;;27.40;85.20;;;;;;4998720;28;20038;-65
2021/09/09 11:15:07;;;;;;;8.15;7.35;;;27.40;89.30;;;;;;4998157;28;20491;-65
2021/09/09 11:17:34;;;;;;;8.95;6.82;;;27.40;86.70;;;;;;5012459;28;20049;-66
2021/09/09 11:20:04;;;;;;;9.27;6.93;;;27.30;83.70;;;;;;5000328;28;20046;-65
2021/09/09 11:22:29;;;;;;;9.70;6.50;;;27.20;85.80;;;;;;5000509;28;20668;-65
2021/09/09 11:24:57;;;;;;;11.48;6.32;;;27.30;87.00;;;;;;5001728;28;20041;-65
2021/09/09 11:27:28;;;;;;;12.52;6.63;;;27.40;81.70;;;;;;5001122;28;20037;-66
2021/09/09 11:29:56;;;;;;;9.40;6.70;;;27.50;78.90;;;;;;4982232;28;20628;-66
2021/09/09 11:32:22;;;;;;;8.85;6.95;;;27.50;77.00;;;;;;4998000;28;20038;-66
2021/09/09 11:34:48;;;;;;;8.88;6.75;;;27.50;76.80;;;;;;5000724;28;20038;-66
2021/09/09 11:37:13;;;;;;;8.15;6.38;;;27.60;76.00;;;;;;5003140;28;20842;-66
2021/09/09 11:39:39;;;;;;;13.95;6.43;;;27.40;72.10;;;;;;5002235;28;20042;-66
2021/09/09 11:42:05;;;;;;;8.43;6.97;;;27.50;76.10;;;;;;5003960;28;20084;-66
2021/09/09 11:44:36;;;;;;;12.00;7.38;;;27.50;75.20;;;;;;5001120;28;20504;-66
2021/09/09 11:47:15;;;;;;;8.63;6.18;;;27.60;75.90;;;;;;5000949;28;20408;-66
2021/09/09 11:49:42;;;;;;;10.90;6.88;;;27.70;80.00;;;;;;5001444;28;20157;-66
2021/09/09 11:52:08;;;;;;;7.15;6.05;;;27.80;81.50;;;;;;5002348;28;20034;-66
2021/09/09 11:54:36;;;;;;;7.20;6.50;;;27.90;81.40;;;;;;4999545;28;20076;-66
2021/09/09 11:57:06;;;;;;;7.90;6.80;;;28.00;78.90;;;;;;5000041;28;20046;-66
2021/09/09 11:59:58;;;;;;;6.75;5.93;;;28.10;77.70;;;;;;5000208;28;20100;-66
2021/09/09 12:02:27;;;;;;;8.60;6.35;;;28.10;72.90;;;;;;5000387;28;20141;-66
2021/09/09 12:04:53;;;;;;;8.13;6.80;;;28.20;73.30;;;;;;5002020;28;20165;-65
2021/09/09 12:07:26;;;;;;;7.95;7.15;;;28.10;72.70;;;;;;4999893;28;20037;-65
2021/09/09 12:09:54;;;;;;;8.85;7.15;;;28.30;73.40;;;;;;5003336;28;20034;-66
2021/09/09 12:12:20;;;;;;;7.72;6.95;;;28.40;73.00;;;;;;5000320;28;20044;-66
2021/09/09 12:15:11;;;;;;;9.07;6.82;;;28.50;76.10;;;;;;4998289;28;20037;-66
2021/09/09 12:17:39;;;;;;;9.30;6.63;;;28.60;73.60;;;;;;4998313;28;20048;-66
2021/09/09 12:20:09;;;;;;;8.65;6.60;;;28.80;72.40;;;;;;4998396;28;20043;-66
2021/09/09 12:22:51;;;;;;;11.63;7.40;;;28.90;72.50;;;;;;4996579;28;20469;-66
2021/09/09 12:25:37;;;;;;;16.08;7.38;;;28.90;73.40;;;;;;5000106;28;20076;-66
2021/09/09 12:28:02;;;;;;;14.07;6.97;;;29.00;72.60;;;;;;5000783;28;20108;-66
2021/09/09 12:30:35;;;;;;;7.70;6.80;;;28.90;72.30;;;;;;4999688;28;20123;-66
2021/09/09 12:33:24;;;;;;;8.13;7.32;;;28.90;68.50;;;;;;4999593;28;20049;-66
2021/09/09 12:36:15;;;;;;;12.80;6.95;;;28.80;69.80;;;;;;4999628;28;20083;-66
2021/09/09 12:38:45;;;;;;;8.10;7.30;;;28.70;70.00;;;;;;5000309;28;20130;-65